Time;durP1;ratioP1;P1;durP2;ratioP2;P2;SDS_P1;SDS_P2;PMS_P1;PMS_P2;Temp;Humidity;BMP_temperature;BMP_pressure;BME280_temperature;BME280_humidity;BME280_pressure;Samples;Min_cycle;Max_cycle;Signal;HPM_P1;HPM_P2
2023/05/26 00:02:06;;;;;;;;;0.00;0.00;;;;;-146.67;29.35;74955.13;5062149;28;62928;-80
2023/05/26 00:04:32;;;;;;;;;0.00;0.00;;;;;-146.67;29.44;74965.09;5063351;28;61932;-80
2023/05/26 00:06:58;;;;;;;;;0.00;0.00;;;;;-146.67;29.38;74963.13;5062767;28;62234;-80
2023/05/26 00:09:24;;;;;;;;;0.00;0.00;;;;;-146.67;29.38;74969.09;5063189;28;61812;-80
2023/05/26 00:11:50;;;;;;;;;0.00;0.00;;;;;-146.67;29.46;74971.09;5071055;28;63575;-80
2023/05/26 00:14:16;;;;;;;;;0.00;0.00;;;;;-146.67;29.74;74971.09;5093708;27;62270;-80
2023/05/26 00:16:43;;;;;;;;;8.25;8.25;;;;;-146.67;29.92;74975.09;5062100;28;61853;-81
2023/05/26 00:19:09;;;;;;;;;0.00;0.00;;;;;-146.67;29.24;74983.06;5094413;27;62310;-80
2023/05/26 00:21:35;;;;;;;;;0.00;0.00;;;;;-146.67;29.72;74993.06;5061935;28;62570;-80
2023/05/26 00:24:01;;;;;;;;;0.00;0.00;;;;;-146.67;29.71;74995.06;5061343;28;62332;-80
2023/05/26 00:26:26;;;;;;;;;7.50;7.50;;;;;-146.67;29.95;74997.06;5062282;28;61709;-80
2023/05/26 00:28:52;;;;;;;;;0.00;0.00;;;;;-146.67;29.93;75011.03;5062613;28;62027;-79
2023/05/26 00:31:18;;;;;;;;;0.00;0.00;;;;;-146.67;30.12;75011.03;5061286;28;61838;-80
2023/05/26 00:33:43;;;;;;;;;0.00;0.00;;;;;-146.67;29.96;75001.06;5080622;28;62263;-80
2023/05/26 00:36:08;;;;;;;;;0.00;0.00;;;;;-146.67;29.95;74999.06;5081238;28;61794;-80
2023/05/26 00:38:34;;;;;;;;;0.00;0.00;;;;;-146.67;30.09;74999.06;5081388;28;62110;-80
2023/05/26 00:41:00;;;;;;;;;0.00;0.00;;;;;-146.67;30.29;75005.03;5082063;28;62004;-80
2023/05/26 00:43:25;;;;;;;;;0.00;0.00;;;;;-146.67;30.11;75009.03;5082232;28;62100;-80
2023/05/26 00:45:51;;;;;;;;;0.00;0.00;;;;;-146.67;30.36;75009.03;5082845;28;61811;-80
2023/05/26 00:48:16;;;;;;;;;0.00;0.00;;;;;-146.67;30.38;75029.00;5082001;28;61772;-80
2023/05/26 00:50:41;;;;;;;;;0.00;0.00;;;;;-146.67;30.38;75040.97;5080886;28;64662;-79
2023/05/26 00:53:08;;;;;;;;;0.00;0.00;;;;;-146.67;30.57;75048.97;5074841;28;61985;-79
2023/05/26 00:55:34;;;;;;;;;0.00;0.00;;;;;-146.67;30.45;75048.97;5062234;28;61727;-80
2023/05/26 00:58:00;;;;;;;;;0.00;0.00;;;;;-146.67;30.94;75074.94;5062237;28;61691;-80
2023/05/26 01:00:26;;;;;;;;;0.00;0.00;;;;;-146.67;30.94;75082.91;5059822;28;63857;-80
2023/05/26 01:02:57;;;;;;;;;10.75;7.75;;;;;-146.67;30.75;75100.88;5062200;28;61769;-80
2023/05/26 01:05:23;;;;;;;;;0.00;0.00;;;;;-146.67;31.13;75110.88;5062294;28;62218;-80
2023/05/26 01:07:48;;;;;;;;;12.00;10.00;;;;;-146.67;31.28;75106.88;5062039;28;61781;-80
2023/05/26 01:10:14;;;;;;;;;9.50;6.25;;;;;-146.67;31.56;75106.88;5076972;28;63849;-80
2023/05/26 01:13:10;;;;;;;;;0.00;0.00;;;;;-146.67;31.02;75092.91;5061670;28;61966;-79
2023/05/26 01:15:51;;;;;;;;;0.00;0.00;;;;;-146.67;31.18;75090.91;5061583;28;61703;-80
2023/05/26 01:18:28;;;;;;;;;14.25;12.75;;;;;-146.67;31.99;75126.84;5061246;28;61818;-80
2023/05/26 01:20:59;;;;;;;;;13.00;12.75;;;;;-146.67;31.59;75122.84;5076596;28;64916;-80
2023/05/26 01:23:40;;;;;;;;;0.00;0.00;;;;;-146.67;31.48;75112.88;5061254;28;61753;-80
2023/05/26 01:26:28;;;;;;;;;7.25;7.25;;;;;-146.67;31.75;75114.88;5061904;28;61759;-80
2023/05/26 01:29:05;;;;;;;;;0.00;0.00;;;;;-146.67;31.49;75116.84;5062212;28;61783;-80
2023/05/26 01:31:33;;;;;;;;;0.00;0.00;;;;;-146.67;31.37;75112.88;5069189;28;62806;-80
2023/05/26 01:34:00;;;;;;;;;0.00;0.00;;;;;-146.67;31.56;75118.84;5080772;28;61921;-80
2023/05/26 01:36:29;;;;;;;;;0.00;0.00;;;;;-146.67;31.37;75118.84;5082195;28;61902;-80
2023/05/26 01:38:55;;;;;;;;;0.00;0.00;;;;;-146.67;31.43;75120.84;5082170;28;61912;-80
2023/05/26 01:41:26;;;;;;;;;0.00;0.00;;;;;-146.67;31.43;75126.84;5080936;28;65236;-80
2023/05/26 01:44:14;;;;;;;;;0.00;0.00;;;;;-146.67;31.76;75134.81;5083197;28;62111;-80
2023/05/26 01:46:47;;;;;;;;;6.00;6.00;;;;;-146.67;31.66;75144.81;5085229;28;61916;-79
2023/05/26 01:49:14;;;;;;;;;0.00;0.00;;;;;-146.67;31.59;75154.78;5101477;27;62052;-79
2023/05/26 01:51:46;;;;;;;;;0.00;0.00;;;;;-146.67;32.04;75158.78;5084537;28;62944;-79
2023/05/26 01:54:16;;;;;;;;;11.50;9.25;;;;;-146.67;31.93;75156.78;5084788;28;61800;-80
2023/05/26 01:56:44;;;;;;;;;0.00;0.00;;;;;-146.67;31.62;75160.78;5064694;28;61809;-79
2023/05/26 01:59:10;;;;;;;;;0.00;0.00;;;;;-146.67;31.96;75162.78;5065248;28;61727;-79
2023/05/26 02:01:35;;;;;;;;;6.75;6.50;;;;;-146.67;31.98;75174.75;5064084;28;62255;-79
2023/05/26 02:04:01;;;;;;;;;7.00;5.50;;;;;-146.67;32.28;75176.75;5063682;28;62053;-80
2023/05/26 02:06:26;;;;;;;;;0.00;0.00;;;;;-146.67;31.99;75186.75;5082884;28;61974;-80
2023/05/26 02:08:52;;;;;;;;;13.25;10.75;;;;;-146.67;32.30;75182.75;5100611;27;61738;-79
2023/05/26 02:11:18;;;;;;;;;0.00;0.00;;;;;-146.67;32.20;75178.75;5084262;28;61947;-80
2023/05/26 02:13:45;;;;;;;;;12.00;12.00;;;;;-146.67;32.03;75186.75;5091593;27;61821;-80
2023/05/26 02:16:11;;;;;;;;;7.50;5.00;;;;;-146.67;32.04;75184.75;5104905;27;61808;-80
2023/05/26 02:18:36;;;;;;;;;0.00;0.00;;;;;-146.67;31.96;75180.75;5103719;27;62083;-80
2023/05/26 02:21:02;;;;;;;;;0.00;0.00;;;;;-146.67;32.15;75194.72;5103601;27;62087;-80
2023/05/26 02:23:27;;;;;;;;;0.00;0.00;;;;;-146.67;31.91;75194.72;5102990;27;62266;-80
2023/05/26 02:25:53;;;;;;;;;11.00;10.00;;;;;-146.67;32.47;75198.72;5103989;27;61788;-80
2023/05/26 02:28:18;;;;;;;;;10.25;8.75;;;;;-146.67;32.29;75204.72;5087718;27;61870;-80
2023/05/26 02:30:43;;;;;;;;;0.00;0.00;;;;;-146.67;32.13;75210.72;5099302;27;64425;-80
2023/05/26 02:33:10;;;;;;;;;0.00;0.00;;;;;-146.67;32.11;75198.72;5083473;28;61942;-80
2023/05/26 02:35:35;;;;;;;;;8.00;8.00;;;;;-146.67;32.46;75206.72;5082931;28;61902;-80
2023/05/26 02:38:00;;;;;;;;;0.00;0.00;;;;;-146.67;32.04;75206.72;5084857;28;62114;-80
2023/05/26 02:40:26;;;;;;;;;0.00;0.00;;;;;-146.67;32.17;75202.72;5095980;27;63776;-80
2023/05/26 02:42:51;;;;;;;;;0.00;0.00;;;;;-146.67;32.28;75210.72;5063976;28;61872;-80
2023/05/26 02:45:16;;;;;;;;;0.00;0.00;;;;;-146.67;32.15;75220.69;5064447;28;61878;-80
2023/05/26 02:47:42;;;;;;;;;0.00;0.00;;;;;-146.67;32.28;75226.69;5062382;28;61815;-80
2023/05/26 02:50:07;;;;;;;;;13.75;9.75;;;;;-146.67;32.61;75234.66;5095817;27;63657;-80
2023/05/26 02:52:33;;;;;;;;;14.00;7.50;;;;;-146.67;32.52;75244.66;5063770;28;61908;-80
2023/05/26 02:54:58;;;;;;;;;9.50;7.25;;;;;-146.67;32.53;75242.66;5062959;28;61949;-80
2023/05/26 02:57:24;;;;;;;;;12.00;7.00;;;;;-146.67;32.78;75250.66;5064196;28;61936;-80
2023/05/26 02:59:49;;;;;;;;;0.00;0.00;;;;;-146.67;31.96;75254.63;5063092;28;62988;-80
2023/05/26 03:02:15;;;;;;;;;0.00;0.00;;;;;-146.67;32.50;75254.63;5064005;28;62262;-80
2023/05/26 03:04:40;;;;;;;;;5.50;4.00;;;;;-146.67;32.62;75250.66;5064120;28;61957;-80
2023/05/26 03:07:07;;;;;;;;;0.00;0.00;;;;;-146.67;32.44;75250.66;5070622;28;62251;-79
2023/05/26 03:09:33;;;;;;;;;12.50;10.00;;;;;-146.67;32.66;75256.63;5098714;27;64506;-80
2023/05/26 03:11:59;;;;;;;;;9.75;8.25;;;;;-146.67;32.70;75252.66;5082134;28;62298;-80
2023/05/26 03:14:25;;;;;;;;;6.50;5.50;;;;;-146.67;32.58;75252.66;5082878;28;61961;-80
2023/05/26 03:16:51;;;;;;;;;0.00;0.00;;;;;-146.67;32.50;75250.66;5083510;28;61831;-80
2023/05/26 03:19:17;;;;;;;;;3.50;3.00;;;;;-146.67;32.62;75254.63;5083606;27;63098;-80
2023/05/26 03:21:42;;;;;;;;;10.75;8.50;;;;;-146.67;32.44;75258.63;5082409;28;61940;-80
2023/05/26 03:24:08;;;;;;;;;10.75;7.75;;;;;-146.67;32.65;75270.63;5081894;28;62399;-80
2023/05/26 03:26:33;;;;;;;;;9.00;8.25;;;;;-146.67;32.81;75276.59;5083985;28;62176;-80
2023/05/26 03:28:59;;;;;;;;;8.00;6.75;;;;;-146.67;32.73;75270.63;5082666;28;61816;-80
2023/05/26 03:31:26;;;;;;;;;5.50;4.25;;;;;-146.67;32.71;75276.59;5083814;27;61966;-80
2023/05/26 03:33:51;;;;;;;;;13.00;11.00;;;;;-146.67;33.00;75282.59;5083026;28;61749;-80
2023/05/26 03:36:17;;;;;;;;;0.00;0.00;;;;;-146.67;32.67;75278.59;5083794;28;61775;-80
2023/05/26 03:38:43;;;;;;;;;0.00;0.00;;;;;-146.67;32.60;75276.59;5082963;27;61863;-80
2023/05/26 03:41:08;;;;;;;;;10.75;9.75;;;;;-146.67;32.52;75286.59;5082958;28;62103;-80
2023/05/26 03:43:34;;;;;;;;;8.00;7.00;;;;;-146.67;32.84;75282.59;5081976;28;61993;-80
2023/05/26 03:46:00;;;;;;;;;5.75;3.75;;;;;-146.67;32.67;75288.59;5083520;28;61734;-80
2023/05/26 03:48:25;;;;;;;;;8.75;8.50;;;;;-146.67;32.76;75304.56;5082134;28;62830;-80
2023/05/26 03:50:51;;;;;;;;;5.50;5.25;;;;;-146.67;32.77;75296.56;5081015;28;61854;-80
2023/05/26 03:53:17;;;;;;;;;0.00;0.00;;;;;-146.67;32.55;75302.56;5083359;28;61909;-80
2023/05/26 03:55:42;;;;;;;;;12.25;9.00;;;;;-146.67;32.74;75298.56;5081922;28;61919;-80
2023/05/26 03:58:08;;;;;;;;;6.25;3.00;;;;;-146.67;32.90;75298.56;5098023;27;63884;-80
2023/05/26 04:00:33;;;;;;;;;11.00;9.25;;;;;-146.67;32.88;75306.56;5081748;28;61892;-80
2023/05/26 04:02:59;;;;;;;;;6.75;5.75;;;;;-146.67;33.19;75322.53;5083125;28;61908;-80
2023/05/26 04:05:25;;;;;;;;;9.50;8.00;;;;;-146.67;33.12;75312.53;5080856;28;61798;-80
2023/05/26 04:07:51;;;;;;;;;12.75;6.50;;;;;-146.67;32.97;75318.53;5097985;27;63732;-80
2023/05/26 04:10:16;;;;;;;;;16.50;9.75;;;;;-146.67;33.23;75330.53;5082488;28;62299;-80
2023/05/26 04:12:42;;;;;;;;;5.50;5.50;;;;;-146.67;33.16;75322.53;5083365;28;61889;-80
2023/05/26 04:15:11;;;;;;;;;9.00;7.00;;;;;-146.67;32.96;75328.53;5081409;27;62125;-80
2023/05/26 04:17:37;;;;;;;;;10.50;7.25;;;;;-146.67;33.14;75328.53;5081655;28;63033;-80
2023/05/26 04:20:10;;;;;;;;;12.25;8.75;;;;;-146.67;33.19;75326.53;5082162;28;61765;-80
2023/05/26 04:22:36;;;;;;;;;10.75;7.75;;;;;-146.67;33.27;75330.53;5082930;28;61768;-80
2023/05/26 04:25:03;;;;;;;;;8.25;7.75;;;;;-146.67;33.32;75322.53;5082744;28;62111;-80
2023/05/26 04:27:28;;;;;;;;;10.00;8.75;;;;;-146.67;33.01;75326.53;5082054;27;61868;-80
2023/05/26 04:29:54;;;;;;;;;10.50;7.50;;;;;-146.67;33.01;75326.53;5081119;28;61898;-80
2023/05/26 04:32:21;;;;;;;;;6.00;6.00;;;;;-146.67;33.08;75326.53;5081956;27;62296;-80
2023/05/26 04:34:48;;;;;;;;;9.25;7.00;;;;;-146.67;33.23;75328.53;5081111;28;61923;-80
2023/05/26 04:37:14;;;;;;;;;8.75;6.00;;;;;-146.67;33.05;75328.53;5080314;28;65016;-80
2023/05/26 04:39:39;;;;;;;;;9.75;7.00;;;;;-146.67;33.04;75330.53;5081191;28;61989;-80
2023/05/26 04:42:05;;;;;;;;;14.25;9.50;;;;;-146.67;33.05;75326.53;5081017;28;62074;-80
2023/05/26 04:44:33;;;;;;;;;9.00;8.00;;;;;-146.67;33.01;75330.53;5082599;28;62031;-80
2023/05/26 04:47:00;;;;;;;;;9.25;8.25;;;;;-146.67;32.92;75324.53;5081309;28;62140;-80
2023/05/26 04:49:29;;;;;;;;;0.00;0.00;;;;;-146.67;32.70;75310.56;5080627;28;61935;-80
2023/05/26 04:51:56;;;;;;;;;10.50;7.00;;;;;-146.67;33.13;75322.53;5068278;28;61770;-80
2023/05/26 04:54:22;;;;;;;;;9.50;6.00;;;;;-146.67;33.17;75320.53;5061478;28;61779;-80
2023/05/26 04:56:48;;;;;;;;;7.00;4.25;;;;;-146.67;32.75;75320.53;5060363;28;63698;-80
2023/05/26 04:59:13;;;;;;;;;10.75;8.00;;;;;-146.67;32.69;75318.53;5061907;28;61784;-80
2023/05/26 05:01:39;;;;;;;;;14.75;9.50;;;;;-146.67;32.98;75306.56;5094730;27;62124;-81
2023/05/26 05:04:06;;;;;;;;;11.00;7.50;;;;;-146.67;32.92;75306.56;5076214;28;61924;-80
2023/05/26 05:06:32;;;;;;;;;5.25;5.25;;;;;-146.67;32.53;75296.56;5082011;28;63290;-80
2023/05/26 05:08:59;;;;;;;;;6.00;4.50;;;;;-146.67;32.44;75296.56;5097734;27;61962;-80
2023/05/26 05:11:24;;;;;;;;;7.50;6.50;;;;;-146.67;32.47;75300.56;5081931;28;61917;-80
2023/05/26 05:13:50;;;;;;;;;4.75;4.75;;;;;-146.67;32.49;75298.56;5082713;28;62060;-80
2023/05/26 05:16:15;;;;;;;;;16.25;8.00;;;;;-146.67;32.61;75294.56;5079853;28;63667;-78
2023/05/26 05:18:40;;;;;;;;;13.25;9.00;;;;;-146.67;32.38;75294.56;5097336;27;62220;-79
2023/05/26 05:21:06;;;;;;;;;9.75;7.50;;;;;-146.67;32.39;75294.56;5064257;28;62007;-79
2023/05/26 05:23:34;;;;;;;;;13.25;8.75;;;;;-146.67;32.57;75294.56;5082806;28;61868;-80
2023/05/26 05:26:00;;;;;;;;;10.00;7.75;;;;;-146.67;32.38;75308.56;5085777;28;62610;-80
2023/05/26 05:28:26;;;;;;;;;7.50;7.25;;;;;-146.67;32.32;75300.56;5067511;27;61820;-77
2023/05/26 05:30:51;;;;;;;;;8.00;4.50;;;;;-146.67;32.30;75298.56;5076836;28;62083;-80
2023/05/26 05:33:18;;;;;;;;;6.75;6.25;;;;;-146.67;32.16;75276.59;5083791;28;61916;-80
2023/05/26 05:35:45;;;;;;;;;11.25;10.50;;;;;-146.67;32.26;75260.63;5084046;28;62103;-79
2023/05/26 05:38:11;;;;;;;;;0.00;0.00;;;;;-146.67;31.33;75226.69;5084590;27;61728;-79
2023/05/26 05:40:36;;;;;;;;;0.00;0.00;;;;;-146.67;31.85;75202.72;5080621;28;62031;-79
2023/05/26 05:43:02;;;;;;;;;15.00;8.75;;;;;-146.67;31.16;75164.78;5100237;27;61733;-79
2023/05/26 05:45:29;;;;;;;;;11.75;9.00;;;;;-146.67;31.02;75134.81;5087263;27;63691;-78
2023/05/26 05:47:56;;;;;;;;;13.00;11.25;;;;;-146.67;30.97;75108.88;5080736;28;62274;-79
2023/05/26 05:50:22;;;;;;;;;8.25;8.25;;;;;-146.67;30.65;75110.88;5084622;28;62055;-79
2023/05/26 05:52:48;;;;;;;;;0.00;0.00;;;;;-146.67;30.68;75086.91;5084459;27;61954;-80
2023/05/26 05:55:13;;;;;;;;;14.75;7.00;;;;;-146.67;30.65;75068.94;5101973;27;62064;-79
2023/05/26 05:57:38;;;;;;;;;0.00;0.00;;;;;-146.67;30.61;75076.94;5104746;27;61935;-78
2023/05/26 06:00:05;;;;;;;;;7.75;7.75;;;;;-146.67;30.42;75068.94;5090210;27;62369;-81
2023/05/26 06:02:31;;;;;;;;;12.75;11.25;;;;;-146.67;30.60;75054.97;5066396;27;61838;-80
2023/05/26 06:04:56;;;;;;;;;5.50;4.75;;;;;-146.67;30.20;75033.00;5075183;28;62113;-80
2023/05/26 06:07:22;;;;;;;;;0.00;0.00;;;;;-146.67;30.11;75013.03;5100468;27;61871;-81
2023/05/26 06:09:47;;;;;;;;;0.00;0.00;;;;;-146.67;29.86;74991.06;5072820;28;61741;-83
2023/05/26 06:12:12;;;;;;;;;0.00;0.00;;;;;-146.67;29.86;74967.09;5064926;28;61895;-82
2023/05/26 06:14:38;;;;;;;;;0.00;0.00;;;;;-146.67;29.48;74933.16;5063830;28;62229;-80
2023/05/26 06:17:04;;;;;;;;;0.00;0.00;;;;;-146.67;29.44;74891.22;5063863;28;62057;-80
2023/05/26 06:19:30;;;;;;;;;0.00;0.00;;;;;-146.67;28.68;74745.47;5072825;28;62015;-80
2023/05/26 06:21:56;;;;;;;;;0.00;0.00;;;;;-146.67;28.16;74673.59;5084585;27;61851;-80
2023/05/26 06:24:21;;;;;;;;;0.00;0.00;;;;;-146.67;27.87;74691.56;5083639;27;61956;-80
2023/05/26 06:26:47;;;;;;;;;0.00;0.00;;;;;-146.67;27.83;74723.50;5083612;27;62262;-80
2023/05/26 06:29:12;;;;;;;;;0.00;0.00;;;;;-146.67;28.16;74731.50;5083762;27;61890;-80
2023/05/26 06:31:38;;;;;;;;;0.00;0.00;;;;;-146.67;28.28;74751.47;5083570;27;62157;-80
2023/05/26 06:34:03;;;;;;;;;0.00;0.00;;;;;-146.67;28.27;74747.47;5083174;28;62197;-80
2023/05/26 06:36:28;;;;;;;;;0.00;0.00;;;;;-146.67;28.27;74767.44;5083837;27;61873;-80
2023/05/26 06:38:54;;;;;;;;;0.00;0.00;;;;;-146.67;28.63;74807.38;5082450;28;62389;-82
2023/05/26 06:41:19;;;;;;;;;0.00;0.00;;;;;-146.67;28.61;74835.31;5097039;27;62241;-80
2023/05/26 06:43:45;;;;;;;;;0.00;0.00;;;;;-146.67;28.98;74867.28;5083232;27;61735;-78
2023/05/26 06:46:10;;;;;;;;;0.00;0.00;;;;;-146.67;29.18;74889.22;5083901;27;61794;-80
2023/05/26 06:48:36;;;;;;;;;0.00;0.00;;;;;-146.67;29.27;74907.22;5083658;28;61738;-80
2023/05/26 06:51:01;;;;;;;;;0.00;0.00;;;;;-146.67;29.31;74929.16;5082599;28;62089;-79
2023/05/26 06:53:26;;;;;;;;;0.00;0.00;;;;;-146.67;29.43;74941.16;5081514;28;63581;-79
2023/05/26 06:55:52;;;;;;;;;0.00;0.00;;;;;-146.67;29.60;74967.09;5084072;27;61781;-79
2023/05/26 06:58:17;;;;;;;;;0.00;0.00;;;;;-146.67;29.57;74975.09;5081841;27;62573;-79
2023/05/26 07:00:57;;;;;;;;;0.00;0.00;;;;;-146.67;29.49;74969.09;5079568;28;61816;-79
2023/05/26 07:03:22;;;;;;;;;0.00;0.00;;;;;-146.67;29.69;74967.09;5071209;28;61839;-79
2023/05/26 07:05:48;;;;;;;;;0.00;0.00;;;;;-146.67;29.55;74973.09;5082735;28;61820;-79
2023/05/26 07:08:13;;;;;;;;;0.00;0.00;;;;;-146.67;29.75;74971.09;5068899;27;61845;-79
2023/05/26 07:10:39;;;;;;;;;0.00;0.00;;;;;-146.67;29.62;74945.16;5087870;27;61991;-79
2023/05/26 07:13:05;;;;;;;;;0.00;0.00;;;;;-146.67;29.58;74961.13;5083016;28;62007;-79
2023/05/26 07:15:30;;;;;;;;;5.50;4.75;;;;;-146.67;29.69;74977.09;5083656;27;61829;-79
2023/05/26 07:17:55;;;;;;;;;0.00;0.00;;;;;-146.67;29.74;74983.06;5098426;27;61743;-79
2023/05/26 07:20:21;;;;;;;;;0.00;0.00;;;;;-146.67;29.95;74979.09;5098778;27;62125;-77
2023/05/26 07:22:46;;;;;;;;;0.00;0.00;;;;;-146.67;30.14;74977.09;5081037;28;63765;-79
2023/05/26 07:25:12;;;;;;;;;0.00;0.00;;;;;-146.67;29.60;74977.09;5079968;27;61726;-80
2023/05/26 07:27:37;;;;;;;;;0.00;0.00;;;;;-146.67;29.86;74977.09;5074586;27;61966;-80
2023/05/26 07:30:03;;;;;;;;;0.00;0.00;;;;;-146.67;29.88;74973.09;5068673;28;62117;-83
2023/05/26 07:32:28;;;;;;;;;0.00;0.00;;;;;-146.67;29.99;74967.09;5097035;27;63837;-81
2023/05/26 07:34:54;;;;;;;;;0.00;0.00;;;;;-146.67;29.83;74975.09;5083477;27;61792;-81
2023/05/26 07:37:19;;;;;;;;;0.00;0.00;;;;;-146.67;29.77;74965.09;5075489;27;62314;-81
2023/05/26 07:39:44;;;;;;;;;0.00;0.00;;;;;-146.67;29.91;74963.13;5061507;28;62238;-82
2023/05/26 07:42:10;;;;;;;;;16.25;11.50;;;;;-146.67;29.72;74971.09;5073183;27;63852;-82
2023/05/26 07:44:35;;;;;;;;;0.00;0.00;;;;;-146.67;29.76;74969.09;5082018;27;61861;-78
2023/05/26 07:47:04;;;;;;;;;0.00;0.00;;;;;-146.67;29.58;74931.16;5086765;27;62173;-81
2023/05/26 07:49:29;;;;;;;;;0.00;0.00;;;;;-146.67;29.57;74949.13;5080749;28;62027;-82
2023/05/26 07:51:55;;;;;;;;;0.00;0.00;;;;;-146.67;30.09;74977.09;5081866;28;61830;-80
2023/05/26 07:54:20;;;;;;;;;0.00;0.00;;;;;-146.67;29.72;74981.09;5082216;28;61778;-81
2023/05/26 07:56:45;;;;;;;;;12.50;10.00;;;;;-146.67;30.04;74981.09;5082799;27;62380;-81
2023/05/26 07:59:11;;;;;;;;;0.00;0.00;;;;;-146.67;30.17;74989.06;5082189;27;61882;-76
2023/05/26 08:01:36;;;;;;;;;0.00;0.00;;;;;-146.67;29.92;74985.06;5081576;27;62121;-75
2023/05/26 08:04:02;;;;;;;;;0.00;0.00;;;;;-146.67;29.98;74977.09;5082488;27;62036;-76
2023/05/26 08:06:27;;;;;;;;;0.00;0.00;;;;;-146.67;30.04;74983.06;5081968;27;61860;-76
2023/05/26 08:08:53;;;;;;;;;0.00;0.00;;;;;-146.67;29.80;74949.13;5082160;28;62034;-77
2023/05/26 08:11:20;;;;;;;;;0.00;0.00;;;;;-146.67;30.23;74963.13;5081109;27;63273;-77
2023/05/26 08:13:46;;;;;;;;;0.00;0.00;;;;;-146.67;29.96;74941.16;5080448;28;62013;-77
2023/05/26 08:16:11;;;;;;;;;10.75;8.25;;;;;-146.67;30.39;74977.09;5081892;27;61754;-77
2023/05/26 08:18:36;;;;;;;;;0.00;0.00;;;;;-146.67;30.20;74941.16;5081539;27;62015;-76
2023/05/26 08:21:02;;;;;;;;;0.00;0.00;;;;;-146.67;30.17;74965.09;5081333;28;61937;-77
2023/05/26 08:23:27;;;;;;;;;12.00;11.00;;;;;-146.67;30.12;74953.13;5081208;28;61976;-80
2023/05/26 08:25:53;;;;;;;;;0.00;0.00;;;;;-146.67;30.12;74951.13;5095089;27;62051;-81
2023/05/26 08:28:18;;;;;;;;;0.00;0.00;;;;;-146.67;30.02;74939.16;5082419;27;61868;-83
2023/05/26 08:30:44;;;;;;;;;11.75;10.25;;;;;-146.67;30.28;74919.19;5079731;28;64517;-81
2023/05/26 08:33:10;;;;;;;;;0.00;0.00;;;;;-146.67;30.09;74913.19;5080716;28;61790;-81
2023/05/26 08:35:35;;;;;;;;;0.00;0.00;;;;;-146.67;29.83;74929.16;5082393;28;61801;-83
2023/05/26 08:38:00;;;;;;;;;0.00;0.00;;;;;-146.67;29.91;74899.22;5082717;28;61714;-82
2023/05/26 08:40:26;;;;;;;;;0.00;0.00;;;;;-146.67;29.79;74885.25;5097203;27;63759;-81
2023/05/26 08:42:55;;;;;;;;;0.00;0.00;;;;;-146.67;29.72;74875.25;5081566;28;61700;-81
2023/05/26 08:45:20;;;;;;;;;0.00;0.00;;;;;-146.67;29.74;74883.25;5081114;28;62307;-82
2023/05/26 08:47:47;;;;;;;;;0.00;0.00;;;;;-146.67;29.66;74863.28;5097366;27;61844;-81
2023/05/26 08:50:13;;;;;;;;;0.00;0.00;;;;;-146.67;29.94;74875.25;5079694;28;64981;-80
2023/05/26 08:52:41;;;;;;;;;0.00;0.00;;;;;-146.67;29.61;74857.28;5081200;28;62006;-80
2023/05/26 08:55:08;;;;;;;;;0.00;0.00;;;;;-146.67;29.61;74855.28;5079897;28;61945;-79
2023/05/26 08:57:33;;;;;;;;;0.00;0.00;;;;;-146.67;29.80;74871.25;5074818;28;62223;-81
2023/05/26 08:59:59;;;;;;;;;10.50;9.50;;;;;-146.67;29.80;74901.22;5081944;27;61851;-83
2023/05/26 09:02:26;;;;;;;;;0.00;0.00;;;;;-146.67;29.95;74885.25;5072549;27;62178;-83
2023/05/26 09:04:51;;;;;;;;;0.00;0.00;;;;;-146.67;30.04;74867.28;5081850;27;62503;-81
2023/05/26 09:07:18;;;;;;;;;0.00;0.00;;;;;-146.67;29.58;74861.28;5080988;28;62117;-81
2023/05/26 09:09:45;;;;;;;;;0.00;0.00;;;;;-146.67;29.72;74865.28;5081395;27;62173;-79
2023/05/26 09:12:12;;;;;;;;;0.00;0.00;;;;;-146.67;29.86;74863.28;5081265;27;62130;-81
2023/05/26 09:14:39;;;;;;;;;0.00;0.00;;;;;-146.67;29.33;74849.31;5082496;27;61954;-78
2023/05/26 09:17:12;;;;;;;;;0.00;0.00;;;;;-146.67;29.80;74845.31;5078132;28;61976;-81
2023/05/26 09:19:37;;;;;;;;;0.00;0.00;;;;;-146.67;29.79;74839.31;5079539;28;63722;-82
2023/05/26 09:44:46;;;;;;;;;;;;;;;;;;;;;
2023/05/26 09:47:56;;;;;;;;;0.00;0.00;;;;;-146.67;29.30;74793.41;4787917;29;91768;-81
2023/05/26 10:00:37;;;;;;;;;;;;;;;;;;;;;
2023/05/26 10:03:07;;;;;;;;;0.00;0.00;;;;;-146.67;29.15;74735.50;4789876;29;75271;-80
2023/05/26 10:05:38;;;;;;;;;0.00;0.00;;;;;-146.67;29.47;74725.50;4793325;29;62177;-80
2023/05/26 10:08:35;;;;;;;;;1.00;1.00;;;;;-146.67;29.32;74751.47;4793287;29;61859;-76
2023/05/26 10:11:03;;;;;;;;;0.00;0.00;;;;;-146.67;29.39;74737.50;4791172;29;62095;-78
2023/05/26 10:13:31;;;;;;;;;0.00;0.00;;;;;-146.67;29.19;74709.53;4791188;29;61950;-78
2023/05/26 10:17:04;;;;;;;;;0.00;0.00;;;;;-146.67;29.04;74685.59;4793818;29;62100;-79
2023/05/26 10:20:43;;;;;;;;;0.00;0.00;;;;;-146.67;29.07;74659.63;4876814;28;62119;-78
2023/05/26 10:23:48;;;;;;;;;;;;;;;;;;;;;
2023/05/26 10:26:49;;;;;;;;;;;;;;;;;;;;;
2023/05/26 10:29:35;;;;;;;;;0.00;0.00;;;;;-146.67;28.72;74639.66;4999593;28;73178;-78
2023/05/26 10:32:18;;;;;;;;;0.00;0.00;;;;;-146.67;28.58;74619.69;5001029;28;61868;-77
2023/05/26 10:34:54;;;;;;;;;0.00;0.00;;;;;-146.67;28.70;74607.72;4984843;28;63189;-76
2023/05/26 10:37:22;;;;;;;;;0.00;0.00;;;;;-146.67;28.41;74585.75;5001246;28;61928;-77
2023/05/26 10:39:59;;;;;;;;;0.00;0.00;;;;;-146.67;28.33;74573.78;4984838;28;61931;-77
2023/05/26 10:42:25;;;;;;;;;0.00;0.00;;;;;-146.67;28.56;74559.81;5000059;28;61879;-77
2023/05/26 10:44:54;;;;;;;;;0.00;0.00;;;;;-146.67;28.25;74543.84;5011936;28;62046;-77
2023/05/26 10:47:22;;;;;;;;;0.00;0.00;;;;;-146.67;28.41;74519.88;5012170;28;61921;-75
2023/05/26 10:50:00;;;;;;;;;0.00;0.00;;;;;-146.67;28.13;74507.91;5012338;28;62365;-77
2023/05/26 10:56:13;;;;;;;;;0.00;0.00;;;;;-146.67;28.29;74491.94;4990268;28;62999;-79
2023/05/26 11:02:23;;;;;;;;;0.00;0.00;;;;;-146.67;27.99;74456.00;4980670;28;62170;-77
2023/05/26 11:04:49;;;;;;;;;0.00;0.00;;;;;-146.67;28.10;74444.00;4982050;28;61921;-78
2023/05/26 11:07:26;;;;;;;;;0.00;0.00;;;;;-146.67;28.01;74416.06;4980726;28;61916;-77
2023/05/26 11:10:08;;;;;;;;;0.00;0.00;;;;;-146.67;27.82;74400.09;4965203;28;62331;-77
2023/05/26 11:12:54;;;;;;;;;0.00;0.00;;;;;-146.67;27.84;74392.09;4961868;28;61969;-77
2023/05/26 11:15:33;;;;;;;;;0.00;0.00;;;;;-146.67;27.97;74384.13;4964345;28;62200;-76
2023/05/26 11:18:06;;;;;;;;;0.00;0.00;;;;;-146.67;27.79;74366.16;4963566;28;63515;-77
2023/05/26 11:20:32;;;;;;;;;0.00;0.00;;;;;-146.67;27.93;74342.19;4964021;28;62011;-77
2023/05/26 11:22:58;;;;;;;;;0.00;0.00;;;;;-146.67;27.38;74316.25;4980395;28;62226;-77
2023/05/26 11:25:25;;;;;;;;;0.00;0.00;;;;;-146.67;27.27;74296.28;4964197;28;61992;-77
2023/05/26 11:27:52;;;;;;;;;0.00;0.00;;;;;-146.67;27.49;74268.31;4980237;28;62151;-77
2023/05/26 11:30:21;;;;;;;;;0.00;0.00;;;;;-146.67;27.46;74256.34;4980224;28;62262;-77
2023/05/26 11:32:51;;;;;;;;;0.00;0.00;;;;;-146.67;26.91;74230.41;4977857;28;62115;-77
2023/05/26 11:35:24;;;;;;;;;0.00;0.00;;;;;-146.67;26.82;74160.53;4980457;28;61985;-77
2023/05/26 11:37:50;;;;;;;;;0.00;0.00;;;;;-146.67;26.43;74078.69;4980981;28;63267;-77
2023/05/26 11:40:15;;;;;;;;;4.00;4.00;;;;;-146.67;26.15;74048.75;5098906;27;62085;-77
2023/05/26 11:42:51;;;;;;;;;0.00;0.00;;;;;-146.67;25.63;73901.03;5082289;27;62030;-77
2023/05/26 11:45:25;;;;;;;;;0.00;0.00;;;;;-146.67;24.71;73721.38;5079978;28;62157;-77
2023/05/26 11:47:51;;;;;;;;;0.00;0.00;;;;;-146.67;23.47;73523.75;5089166;27;63216;-78
2023/05/26 11:50:19;;;;;;;;;0.00;0.00;;;;;-146.67;23.37;73340.13;5083787;27;61861;-78
2023/05/26 11:52:48;;;;;;;;;0.00;0.00;;;;;-146.67;23.12;73190.44;5081390;27;61932;-78
2023/05/26 11:55:17;;;;;;;;;0.00;0.00;;;;;-146.67;22.32;73042.75;5081209;28;62564;-78
2023/05/26 12:04:40;;;;;;;;;0.00;0.00;;;;;-146.67;20.97;72623.69;5059137;28;62501;-78
2023/05/26 12:07:06;;;;;;;;;0.00;0.00;;;;;-146.67;19.88;72519.91;5060492;28;61887;-78
2023/05/26 12:09:31;;;;;;;;;0.00;0.00;;;;;-146.67;19.92;72428.13;5059308;28;62115;-78
2023/05/26 12:11:57;;;;;;;;;0.00;0.00;;;;;-146.67;19.78;72356.28;5048494;28;62213;-78
2023/05/26 12:14:22;;;;;;;;;0.00;0.00;;;;;-146.67;20.21;72290.44;5040310;28;61863;-78